Puttalam, Sri Lanka

8:32 PM IST on August 29, 2015 (GMT +0530)
Bandaranaike International | | Change Station
CLOSE
Current Station
Airport
Location: Katunayake,
Elevation: 26 ft
Nearby Weather Stations

Elev 26 ft 7.18 °N, 79.88 °E | Updated 1 hour ago

Scattered Clouds
Scattered Clouds
84 °F
Feels Like 92 °F
N
12
Wind Variable Wind from SW

Today
High -- | Low -- °F
--% Chance of Precip.
Yesterday
High -- | Low -- °F
Precip. -- in
6:03 AM 6:20 PM
Full, 100% visible
Pressure 29.80 in
Visibility 6.2 miles
Clouds Scattered Clouds 1800 ft
Heat Index 92 °F
Dew Point 75 °F
Humidity 74%
Rainfall 0.00 in
Snow Depth Not available.
UV 0 out of 12
Pollen Not available.
Air Quality Not available.
Flu Activity Not available.
METAR VCBI 291310Z 22010KT 9999 SCT018 29/24 Q1009 NOSIG
Pressure 29.80 in
Visibility 6.2 miles
Clouds Scattered Clouds 1800 ft
Heat Index 92 °F
Dew Point 75 °F
Humidity 74%
Rainfall 0.00 in
Snow Depth Not available.
UV 0 out of 12
Pollen Not available.
Air Quality Not available.
Flu Activity Not available.
METAR VCBI 291310Z 22010KT 9999 SCT018 29/24 Q1009 NOSIG

10-Day Weather Forecast

×

Almanac

Astronomy

Aug. 29, 2015 Rise Set
Actual Time
Civil Twilight
Nautical Twilight
Astronomical Twilight
Moon
Length of Visible Light
Length of Day
Tomorrow will be .
, % of the Moon is Illuminated

Today's Extremes

Country Highs Country Lows

Community

WunderPhotos

Upload Photos

1,850,684 photos uploaded!

WunderBlogs® & News

Nearby

Air Quality

  Air Quality AQ Index Pollutant
Not available.

Snow Depth

Station Depth Elevation

Earthquake Activity

City Distance Mag. Time & Date
Minimum magnitude displayed is 2.5.

Coastal Water Temperatures

Place Temperature

Stations

Nearby Weather Stations

Station Location Temp. Windchill Dew Point Humidity Wind Precip. Elev Updated Type